sensor_id;sensor_type;location;lat;lon;timestamp;pressure;altitude;pressure_sealevel;temperature;humidity
27643;BME280;15053;48.618;10.024;2023-12-29T00:01:32;94341.06;;;8.04;95.39
27643;BME280;15053;48.618;10.024;2023-12-29T00:03:59;94338.72;;;8.02;94.78
27643;BME280;15053;48.618;10.024;2023-12-29T00:06:25;94331.50;;;7.99;95.51
27643;BME280;15053;48.618;10.024;2023-12-29T00:08:52;94338.75;;;7.97;95.57
27643;BME280;15053;48.618;10.024;2023-12-29T00:11:22;94333.84;;;7.96;95.69
27643;BME280;15053;48.618;10.024;2023-12-29T00:13:48;94324.50;;;7.95;95.95
27643;BME280;15053;48.618;10.024;2023-12-29T00:16:15;94333.06;;;7.95;96.32
27643;BME280;15053;48.618;10.024;2023-12-29T00:18:42;94334.63;;;7.96;96.46
27643;BME280;15053;48.618;10.024;2023-12-29T00:21:10;94334.63;;;7.96;96.45
27643;BME280;15053;48.618;10.024;2023-12-29T00:23:36;94327.88;;;7.95;96.00
27643;BME280;15053;48.618;10.024;2023-12-29T00:26:03;94329.94;;;7.98;96.46
27643;BME280;15053;48.618;10.024;2023-12-29T00:28:29;94317.50;;;7.95;96.29
27643;BME280;15053;48.618;10.024;2023-12-29T00:30:56;94314.41;;;7.93;96.54
27643;BME280;15053;48.618;10.024;2023-12-29T00:33:29;94317.00;;;7.93;96.94
27643;BME280;15053;48.618;10.024;2023-12-29T00:35:57;94312.84;;;7.92;96.26
27643;BME280;15053;48.618;10.024;2023-12-29T00:38:27;94320.63;;;7.92;96.09
27643;BME280;15053;48.618;10.024;2023-12-29T00:40:57;94315.19;;;7.89;96.46
27643;BME280;15053;48.618;10.024;2023-12-29T00:43:23;94310.28;;;7.87;96.70
27643;BME280;15053;48.618;10.024;2023-12-29T00:45:50;94308.22;;;7.84;97.34
27643;BME280;15053;48.618;10.024;2023-12-29T00:48:16;94304.38;;;7.82;97.10
27643;BME280;15053;48.618;10.024;2023-12-29T00:50:45;94303.09;;;7.79;96.90
27643;BME280;15053;48.618;10.024;2023-12-29T00:53:11;94302.59;;;7.77;97.42
27643;BME280;15053;48.618;10.024;2023-12-29T00:55:38;94299.75;;;7.73;97.49
27643;BME280;15053;48.618;10.024;2023-12-29T00:58:04;94297.94;;;7.74;97.63
27643;BME280;15053;48.618;10.024;2023-12-29T01:00:32;94306.75;;;7.73;97.58
27643;BME280;15053;48.618;10.024;2023-12-29T01:03:00;94311.38;;;7.76;97.60
27643;BME280;15053;48.618;10.024;2023-12-29T01:05:26;94300.00;;;7.77;96.67
27643;BME280;15053;48.618;10.024;2023-12-29T01:07:54;94296.34;;;7.78;96.94
27643;BME280;15053;48.618;10.024;2023-12-29T01:10:21;94301.53;;;7.78;96.67
27643;BME280;15053;48.618;10.024;2023-12-29T01:12:47;94296.34;;;7.78;96.13
27643;BME280;15053;48.618;10.024;2023-12-29T01:15:14;94287.53;;;7.79;95.80
27643;BME280;15053;48.618;10.024;2023-12-29T01:17:41;94279.50;;;7.76;95.77
27643;BME280;15053;48.618;10.024;2023-12-29T01:20:08;94272.00;;;7.74;95.58
27643;BME280;15053;48.618;10.024;2023-12-29T01:22:34;94269.94;;;7.71;95.55
27643;BME280;15053;48.618;10.024;2023-12-29T01:25:02;94281.34;;;7.70;95.89
27643;BME280;15053;48.618;10.024;2023-12-29T01:27:29;94279.53;;;7.70;94.86
27643;BME280;15053;48.618;10.024;2023-12-29T01:29:56;94288.13;;;7.66;94.78
27643;BME280;15053;48.618;10.024;2023-12-29T01:32:23;94292.78;;;7.64;94.86
27643;BME280;15053;48.618;10.024;2023-12-29T01:34:49;94292.03;;;7.63;94.79
27643;BME280;15053;48.618;10.024;2023-12-29T01:37:17;94302.38;;;7.63;94.62
27643;BME280;15053;48.618;10.024;2023-12-29T01:39:43;94303.41;;;7.62;94.91
27643;BME280;15053;48.618;10.024;2023-12-29T01:42:10;94305.22;;;7.62;95.19
27643;BME280;15053;48.618;10.024;2023-12-29T01:44:38;94309.88;;;7.65;94.74
27643;BME280;15053;48.618;10.024;2023-12-29T01:47:11;94306.50;;;7.64;95.42
27643;BME280;15053;48.618;10.024;2023-12-29T01:49:40;94300.56;;;7.64;94.82
27643;BME280;15053;48.618;10.024;2023-12-29T01:52:07;94307.00;;;7.66;95.45
27643;BME280;15053;48.618;10.024;2023-12-29T01:54:35;94303.66;;;7.66;95.21
27643;BME280;15053;48.618;10.024;2023-12-29T01:57:06;94314.56;;;7.63;95.76
27643;BME280;15053;48.618;10.024;2023-12-29T01:59:35;94305.22;;;7.62;94.91
27643;BME280;15053;48.618;10.024;2023-12-29T02:02:02;94304.44;;;7.61;95.73
27643;BME280;15053;48.618;10.024;2023-12-29T02:04:30;94294.38;;;7.60;94.90
27643;BME280;15053;48.618;10.024;2023-12-29T02:06:57;94293.34;;;7.56;95.50
27643;BME280;15053;48.618;10.024;2023-12-29T02:09:24;94294.94;;;7.52;95.30
27643;BME280;15053;48.618;10.024;2023-12-29T02:11:51;94295.97;;;7.46;95.24
27643;BME280;15053;48.618;10.024;2023-12-29T02:14:19;94292.34;;;7.42;94.93
27643;BME280;15053;48.618;10.024;2023-12-29T02:17:15;94291.59;;;7.36;95.07
27643;BME280;15053;48.618;10.024;2023-12-29T02:19:47;94278.44;;;7.23;95.03
27643;BME280;15053;48.618;10.024;2023-12-29T02:22:16;94279.22;;;7.23;95.66
27643;BME280;15053;48.618;10.024;2023-12-29T02:24:49;94275.34;;;7.21;95.37
27643;BME280;15053;48.618;10.024;2023-12-29T02:27:34;94269.16;;;7.17;96.49
27643;BME280;15053;48.618;10.024;2023-12-29T02:32:43;94267.63;;;7.10;96.24
27643;BME280;15053;48.618;10.024;2023-12-29T02:35:15;94264.78;;;7.07;96.76
27643;BME280;15053;48.618;10.024;2023-12-29T02:37:43;94263.22;;;7.06;96.05
27643;BME280;15053;48.618;10.024;2023-12-29T02:40:10;94248.25;;;7.03;95.99
27643;BME280;15053;48.618;10.024;2023-12-29T02:42:38;94252.38;;;7.04;96.95
27643;BME280;15053;48.618;10.024;2023-12-29T02:45:05;94246.94;;;7.00;96.80
27643;BME280;15053;48.618;10.024;2023-12-29T02:47:32;94258.84;;;7.01;96.66
27643;BME280;15053;48.618;10.024;2023-12-29T02:49:58;94261.19;;;6.98;96.49
27643;BME280;15053;48.618;10.024;2023-12-29T02:52:25;94259.66;;;6.97;96.50
27643;BME280;15053;48.618;10.024;2023-12-29T02:54:52;94260.44;;;6.97;97.17
27643;BME280;15053;48.618;10.024;2023-12-29T02:57:18;94263.00;;;6.97;97.13
27643;BME280;15053;48.618;10.024;2023-12-29T02:59:45;94259.66;;;6.97;96.37
27643;BME280;15053;48.618;10.024;2023-12-29T03:02:11;94253.94;;;7.00;96.82
27643;BME280;15053;48.618;10.024;2023-12-29T03:04:38;94251.88;;;7.02;97.04
27643;BME280;15053;48.618;10.024;2023-12-29T03:07:04;94252.13;;;7.05;96.68
27643;BME280;15053;48.618;10.024;2023-12-29T03:09:31;94253.13;;;7.09;97.54
27643;BME280;15053;48.618;10.024;2023-12-29T03:11:58;94245.84;;;7.11;96.89
27643;BME280;15053;48.618;10.024;2023-12-29T03:14:24;94243.78;;;7.13;97.65
27643;BME280;15053;48.618;10.024;2023-12-29T03:16:50;94254.38;;;7.17;97.10
27643;BME280;15053;48.618;10.024;2023-12-29T03:19:17;94238.59;;;7.19;97.75
27643;BME280;15053;48.618;10.024;2023-12-29T03:21:44;94233.91;;;7.21;97.24
27643;BME280;15053;48.618;10.024;2023-12-29T03:24:10;94221.47;;;7.23;97.27
27643;BME280;15053;48.618;10.024;2023-12-29T03:26:37;94220.44;;;7.24;97.63
27643;BME280;15053;48.618;10.024;2023-12-29T03:29:04;94217.56;;;7.30;97.50
27643;BME280;15053;48.618;10.024;2023-12-29T03:31:30;94222.97;;;7.34;97.21
27643;BME280;15053;48.618;10.024;2023-12-29T03:33:57;94218.03;;;7.37;97.50
27643;BME280;15053;48.618;10.024;2023-12-29T03:36:24;94208.72;;;7.41;97.60
27643;BME280;15053;48.618;10.024;2023-12-29T03:38:50;94220.06;;;7.45;96.55
27643;BME280;15053;48.618;10.024;2023-12-29T03:41:17;94196.81;;;7.35;96.47
27643;BME280;15053;48.618;10.024;2023-12-29T03:43:43;94214.06;;;7.55;96.79
27643;BME280;15053;48.618;10.024;2023-12-29T03:48:43;94208.81;;;7.65;96.50
27643;BME280;15053;48.618;10.024;2023-12-29T03:51:11;94209.28;;;7.72;96.53
27643;BME280;15053;48.618;10.024;2023-12-29T03:53:37;94205.88;;;7.77;95.94
27643;BME280;15053;48.618;10.024;2023-12-29T03:56:06;94210.25;;;7.81;96.08
27643;BME280;15053;48.618;10.024;2023-12-29T03:58:33;94205.56;;;7.83;96.09
27643;BME280;15053;48.618;10.024;2023-12-29T04:00:59;94211.78;;;7.87;95.29
27643;BME280;15053;48.618;10.024;2023-12-29T04:03:26;94215.66;;;7.90;95.20
27643;BME280;15053;48.618;10.024;2023-12-29T04:05:52;94203.94;;;7.92;95.36
27643;BME280;15053;48.618;10.024;2023-12-29T04:08:19;94206.50;;;7.97;95.06
27643;BME280;15053;48.618;10.024;2023-12-29T04:10:45;94205.13;;;8.05;95.10
27643;BME280;15053;48.618;10.024;2023-12-29T04:13:12;94208.75;;;8.09;94.41
27643;BME280;15053;48.618;10.024;2023-12-29T04:15:41;94203.81;;;8.12;94.66
27643;BME280;15053;48.618;10.024;2023-12-29T04:18:07;94212.84;;;8.15;94.50
27643;BME280;15053;48.618;10.024;2023-12-29T04:20:34;94204.78;;;8.16;94.20
27643;BME280;15053;48.618;10.024;2023-12-29T04:23:02;94208.94;;;8.17;93.47
27643;BME280;15053;48.618;10.024;2023-12-29T04:25:29;94204.25;;;8.19;93.14
27643;BME280;15053;48.618;10.024;2023-12-29T04:27:55;94197.78;;;8.17;93.42
27643;BME280;15053;48.618;10.024;2023-12-29T04:30:22;94198.81;;;8.16;92.78
27643;BME280;15053;48.618;10.024;2023-12-29T04:32:48;94200.38;;;8.17;93.16
27643;BME280;15053;48.618;10.024;2023-12-29T04:35:17;94206.13;;;8.14;93.30
27643;BME280;15053;48.618;10.024;2023-12-29T04:37:44;94206.88;;;8.14;92.80
27643;BME280;15053;48.618;10.024;2023-12-29T04:40:14;94200.94;;;8.14;92.92
27643;BME280;15053;48.618;10.024;2023-12-29T04:42:40;94196.53;;;8.14;93.12
27643;BME280;15053;48.618;10.024;2023-12-29T04:45:07;94198.63;;;8.12;93.31
27643;BME280;15053;48.618;10.024;2023-12-29T04:47:34;94193.44;;;8.12;93.21
27643;BME280;15053;48.618;10.024;2023-12-29T04:50:00;94197.56;;;8.13;92.97
27643;BME280;15053;48.618;10.024;2023-12-29T04:52:27;94205.13;;;8.10;93.47
27643;BME280;15053;48.618;10.024;2023-12-29T04:54:53;94206.44;;;8.07;92.91
27643;BME280;15053;48.618;10.024;2023-12-29T04:57:20;94207.47;;;8.06;92.70
27643;BME280;15053;48.618;10.024;2023-12-29T04:59:46;94213.69;;;8.05;92.76
27643;BME280;15053;48.618;10.024;2023-12-29T05:02:13;94205.66;;;8.07;93.53
27643;BME280;15053;48.618;10.024;2023-12-29T05:04:40;94201.25;;;8.07;92.97
27643;BME280;15053;48.618;10.024;2023-12-29T05:07:08;94196.81;;;8.08;94.04
27643;BME280;15053;48.618;10.024;2023-12-29T05:09:35;94211.34;;;8.09;94.02
27643;BME280;15053;48.618;10.024;2023-12-29T05:12:02;94202.00;;;8.08;93.47
27643;BME280;15053;48.618;10.024;2023-12-29T05:14:29;94214.72;;;8.09;93.31
27643;BME280;15053;48.618;10.024;2023-12-29T05:16:55;94220.94;;;8.08;93.90
27643;BME280;15053;48.618;10.024;2023-12-29T05:19:21;94211.09;;;8.05;94.08
27643;BME280;15053;48.618;10.024;2023-12-29T05:21:48;94214.22;;;8.07;93.91
27643;BME280;15053;48.618;10.024;2023-12-29T05:24:17;94209.53;;;8.09;93.89
27643;BME280;15053;48.618;10.024;2023-12-29T05:26:43;94204.84;;;8.11;94.88
27643;BME280;15053;48.618;10.024;2023-12-29T05:29:10;94212.09;;;8.14;94.26
27643;BME280;15053;48.618;10.024;2023-12-29T05:31:36;94207.66;;;8.15;94.63
27643;BME280;15053;48.618;10.024;2023-12-29T05:34:03;94215.16;;;8.16;94.70
27643;BME280;15053;48.618;10.024;2023-12-29T05:36:30;94211.03;;;8.15;94.11
27643;BME280;15053;48.618;10.024;2023-12-29T05:38:56;94212.56;;;8.16;94.44
27643;BME280;15053;48.618;10.024;2023-12-29T05:41:23;94213.34;;;8.17;94.18
27643;BME280;15053;48.618;10.024;2023-12-29T05:43:49;94209.72;;;8.18;94.31
27643;BME280;15053;48.618;10.024;2023-12-29T05:46:15;94212.31;;;8.18;94.47
27643;BME280;15053;48.618;10.024;2023-12-29T05:48:42;94221.13;;;8.17;95.18
27643;BME280;15053;48.618;10.024;2023-12-29T05:51:10;94223.47;;;8.18;95.38
27643;BME280;15053;48.618;10.024;2023-12-29T05:53:37;94222.69;;;8.18;94.68
27643;BME280;15053;48.618;10.024;2023-12-29T05:56:03;94222.91;;;8.21;95.15
27643;BME280;15053;48.618;10.024;2023-12-29T05:58:30;94215.91;;;8.22;95.12
27643;BME280;15053;48.618;10.024;2023-12-29T06:00:56;94220.31;;;8.21;95.58
27643;BME280;15053;48.618;10.024;2023-12-29T06:03:25;94216.69;;;8.22;95.92
27643;BME280;15053;48.618;10.024;2023-12-29T06:05:51;94215.41;;;8.20;95.89
27643;BME280;15053;48.618;10.024;2023-12-29T06:08:18;94217.22;;;8.19;95.87
27643;BME280;15053;48.618;10.024;2023-12-29T06:10:44;94213.31;;;8.22;95.54
27643;BME280;15053;48.618;10.024;2023-12-29T06:13:11;94217.94;;;8.25;96.04
27643;BME280;15053;48.618;10.024;2023-12-29T06:15:38;94215.09;;;8.26;96.14
27643;BME280;15053;48.618;10.024;2023-12-29T06:18:05;94217.94;;;8.30;95.92
27643;BME280;15053;48.618;10.024;2023-12-29T06:20:32;94228.59;;;8.28;95.60
27643;BME280;15053;48.618;10.024;2023-12-29T06:22:59;94217.44;;;8.28;95.52
27643;BME280;15053;48.618;10.024;2023-12-29T06:25:26;94220.81;;;8.28;95.49
27643;BME280;15053;48.618;10.024;2023-12-29T06:27:53;94225.19;;;8.33;95.91
27643;BME280;15053;48.618;10.024;2023-12-29T06:30:21;94215.56;;;8.34;95.90
27643;BME280;15053;48.618;10.024;2023-12-29T06:32:47;94222.88;;;8.32;96.06
27643;BME280;15053;48.618;10.024;2023-12-29T06:35:14;94218.72;;;8.30;95.68
27643;BME280;15053;48.618;10.024;2023-12-29T06:37:40;94216.13;;;8.30;96.08
27643;BME280;15053;48.618;10.024;2023-12-29T06:40:07;94213.81;;;8.29;95.54
27643;BME280;15053;48.618;10.024;2023-12-29T06:42:34;94216.44;;;8.24;95.16
27643;BME280;15053;48.618;10.024;2023-12-29T06:45:01;94217.75;;;8.16;95.14
27643;BME280;15053;48.618;10.024;2023-12-29T06:47:27;94215.75;;;8.08;94.25
27643;BME280;15053;48.618;10.024;2023-12-29T06:49:54;94214.81;;;7.94;94.22
27643;BME280;15053;48.618;10.024;2023-12-29T06:52:21;94215.94;;;7.83;94.33
27643;BME280;15053;48.618;10.024;2023-12-29T06:54:47;94217.56;;;7.74;94.31
27643;BME280;15053;48.618;10.024;2023-12-29T06:57:14;94214.00;;;7.65;94.60
27643;BME280;15053;48.618;10.024;2023-12-29T06:59:41;94209.88;;;7.59;94.65
27643;BME280;15053;48.618;10.024;2023-12-29T07:02:08;94215.34;;;7.57;95.33
27643;BME280;15053;48.618;10.024;2023-12-29T07:04:34;94221.56;;;7.56;95.58
27643;BME280;15053;48.618;10.024;2023-12-29T07:07:01;94223.38;;;7.56;95.64
27643;BME280;15053;48.618;10.024;2023-12-29T07:09:30;94232.22;;;7.55;96.14
27643;BME280;15053;48.618;10.024;2023-12-29T07:11:56;94220.28;;;7.54;96.50
27643;BME280;15053;48.618;10.024;2023-12-29T07:14:23;94210.41;;;7.56;95.88
27643;BME280;15053;48.618;10.024;2023-12-29T07:16:49;94218.19;;;7.56;95.82
27643;BME280;15053;48.618;10.024;2023-12-29T07:19:16;94218.19;;;7.56;96.81
27643;BME280;15053;48.618;10.024;2023-12-29T07:21:45;94220.78;;;7.56;96.18
27643;BME280;15053;48.618;10.024;2023-12-29T07:24:12;94224.44;;;7.55;96.54
27643;BME280;15053;48.618;10.024;2023-12-29T07:26:38;94218.72;;;7.58;96.86
27643;BME280;15053;48.618;10.024;2023-12-29T07:29:05;94220.25;;;7.59;96.76
27643;BME280;15053;48.618;10.024;2023-12-29T07:31:32;94231.09;;;7.61;96.74
27643;BME280;15053;48.618;10.024;2023-12-29T07:33:59;94226.47;;;7.63;96.80
27643;BME280;15053;48.618;10.024;2023-12-29T07:36:26;94224.34;;;7.65;97.23
27643;BME280;15053;48.618;10.024;2023-12-29T07:38:53;94230.56;;;7.64;96.38
27643;BME280;15053;48.618;10.024;2023-12-29T07:41:19;94242.00;;;7.63;96.55
27643;BME280;15053;48.618;10.024;2023-12-29T07:43:46;94237.81;;;7.67;96.97
27643;BME280;15053;48.618;10.024;2023-12-29T07:46:12;94217.41;;;7.60;96.04
27643;BME280;15053;48.618;10.024;2023-12-29T07:48:39;94243.25;;;7.70;96.94
27643;BME280;15053;48.618;10.024;2023-12-29T07:51:06;94239.09;;;7.75;97.08
27643;BME280;15053;48.618;10.024;2023-12-29T07:53:33;94222.72;;;7.79;96.55
27643;BME280;15053;48.618;10.024;2023-12-29T07:55:59;94233.06;;;7.84;96.27
27643;BME280;15053;48.618;10.024;2023-12-29T07:58:25;94233.06;;;7.84;96.09
27643;BME280;15053;48.618;10.024;2023-12-29T08:00:52;94236.91;;;7.87;95.99
27643;BME280;15053;48.618;10.024;2023-12-29T08:03:19;94242.59;;;7.89;95.77
27643;BME280;15053;48.618;10.024;2023-12-29T08:05:45;94241.84;;;7.88;95.44
27643;BME280;15053;48.618;10.024;2023-12-29T08:08:12;94216.97;;;7.87;95.76
27643;BME280;15053;48.618;10.024;2023-12-29T08:10:39;94229.38;;;7.90;95.63
27643;BME280;15053;48.618;10.024;2023-12-29T08:13:05;94243.13;;;7.91;95.36
27643;BME280;15053;48.618;10.024;2023-12-29T08:15:35;94249.06;;;7.91;96.14
27643;BME280;15053;48.618;10.024;2023-12-29T08:18:02;94247.53;;;7.90;96.04
27643;BME280;15053;48.618;10.024;2023-12-29T08:20:29;94247.00;;;7.93;95.96
27643;BME280;15053;48.618;10.024;2023-12-29T08:22:56;94241.81;;;7.93;95.04
27643;BME280;15053;48.618;10.024;2023-12-29T08:25:23;94257.38;;;7.93;95.56
27643;BME280;15053;48.618;10.024;2023-12-29T08:27:50;94249.84;;;7.92;95.41
27643;BME280;15053;48.618;10.024;2023-12-29T08:30:16;94261.16;;;8.06;95.80
27643;BME280;15053;48.618;10.024;2023-12-29T08:32:43;94266.31;;;8.11;95.84
27643;BME280;15053;48.618;10.024;2023-12-29T08:35:10;94265.50;;;8.15;95.23
27643;BME280;15053;48.618;10.024;2023-12-29T08:37:36;94261.84;;;8.16;95.65
27643;BME280;15053;48.618;10.024;2023-12-29T08:40:03;94254.59;;;8.18;95.46
27643;BME280;15053;48.618;10.024;2023-12-29T08:42:30;94261.56;;;8.23;95.36
27643;BME280;15053;48.618;10.024;2023-12-29T08:44:58;94257.16;;;8.23;94.95
27643;BME280;15053;48.618;10.024;2023-12-29T08:47:25;94248.56;;;8.28;94.30
27643;BME280;15053;48.618;10.024;2023-12-29T08:49:51;94259.41;;;8.35;94.66
27643;BME280;15053;48.618;10.024;2023-12-29T08:52:20;94266.38;;;8.40;94.25
27643;BME280;15053;48.618;10.024;2023-12-29T08:54:47;94259.59;;;8.44;93.57
27643;BME280;15053;48.618;10.024;2023-12-29T08:57:14;94258.75;;;8.53;93.90
27643;BME280;15053;48.618;10.024;2023-12-29T08:59:40;94260.78;;;8.56;93.51
27643;BME280;15053;48.618;10.024;2023-12-29T09:02:07;94261.22;;;8.63;93.30
27643;BME280;15053;48.618;10.024;2023-12-29T09:04:34;94259.59;;;8.72;92.87
27643;BME280;15053;48.618;10.024;2023-12-29T09:07:00;94257.19;;;8.81;92.92
27643;BME280;15053;48.618;10.024;2023-12-29T09:09:27;94247.19;;;8.93;92.87
27643;BME280;15053;48.618;10.024;2023-12-29T09:11:53;94254.88;;;9.03;92.43
27643;BME280;15053;48.618;10.024;2023-12-29T09:14:20;94245.47;;;9.07;92.51
27643;BME280;15053;48.618;10.024;2023-12-29T09:16:46;94245.16;;;9.14;91.81
27643;BME280;15053;48.618;10.024;2023-12-29T09:19:13;94249.25;;;9.20;91.36
27643;BME280;15053;48.618;10.024;2023-12-29T09:21:56;94244.69;;;9.30;91.48
27643;BME280;15053;48.618;10.024;2023-12-29T09:24:23;94247.88;;;9.46;90.50
27643;BME280;15053;48.618;10.024;2023-12-29T09:26:49;94258.91;;;9.57;90.08
27643;BME280;15053;48.618;10.024;2023-12-29T09:29:17;94271.72;;;9.72;89.85
27643;BME280;15053;48.618;10.024;2023-12-29T09:31:44;94258.28;;;9.83;89.30
27643;BME280;15053;48.618;10.024;2023-12-29T09:34:10;94258.38;;;9.97;89.02
27643;BME280;15053;48.618;10.024;2023-12-29T09:36:37;94267.84;;;10.06;88.66
27643;BME280;15053;48.618;10.024;2023-12-29T09:39:03;94255.78;;;10.16;87.89
27643;BME280;15053;48.618;10.024;2023-12-29T09:41:31;94266.81;;;10.26;87.82
27643;BME280;15053;48.618;10.024;2023-12-29T09:43:58;94263.56;;;10.34;87.34
27643;BME280;15053;48.618;10.024;2023-12-29T09:46:25;94254.63;;;10.40;86.12
27643;BME280;15053;48.618;10.024;2023-12-29T09:48:55;94266.00;;;10.44;86.37
27643;BME280;15053;48.618;10.024;2023-12-29T09:51:24;94254.88;;;10.39;85.78
27643;BME280;15053;48.618;10.024;2023-12-29T09:53:51;94261.03;;;10.29;86.94
27643;BME280;15053;48.618;10.024;2023-12-29T09:56:19;94271.00;;;10.22;87.10
27643;BME280;15053;48.618;10.024;2023-12-29T09:58:47;94277.28;;;10.21;86.83
27643;BME280;15053;48.618;10.024;2023-12-29T10:01:17;94263.28;;;10.17;87.16
27643;BME280;15053;48.618;10.024;2023-12-29T10:03:44;94268.50;;;10.17;86.89
27643;BME280;15053;48.618;10.024;2023-12-29T10:06:19;94272.16;;;10.16;87.04
27643;BME280;15053;48.618;10.024;2023-12-29T10:08:47;94264.28;;;10.21;87.40
27643;BME280;15053;48.618;10.024;2023-12-29T10:11:18;94274.38;;;10.41;87.64
27643;BME280;15053;48.618;10.024;2023-12-29T10:13:49;94261.00;;;10.48;86.72
27643;BME280;15053;48.618;10.024;2023-12-29T10:16:38;94259.03;;;10.40;86.52
27643;BME280;15053;48.618;10.024;2023-12-29T10:19:44;94256.66;;;10.43;85.84
27643;BME280;15053;48.618;10.024;2023-12-29T10:22:58;94250.50;;;10.66;86.29
27643;BME280;15053;48.618;10.024;2023-12-29T10:25:27;94237.16;;;10.87;84.91
27643;BME280;15053;48.618;10.024;2023-12-29T10:27:55;94238.41;;;10.89;84.70
27643;BME280;15053;48.618;10.024;2023-12-29T10:30:22;94234.13;;;10.80;84.41
27643;BME280;15053;48.618;10.024;2023-12-29T10:32:59;94238.75;;;10.69;84.69
27643;BME280;15053;48.618;10.024;2023-12-29T10:35:27;94237.69;;;10.56;84.44
27643;BME280;15053;48.618;10.024;2023-12-29T10:37:54;94218.28;;;10.49;84.87
27643;BME280;15053;48.618;10.024;2023-12-29T10:40:21;94228.06;;;10.38;84.96
27643;BME280;15053;48.618;10.024;2023-12-29T10:42:52;94225.06;;;10.31;85.20
27643;BME280;15053;48.618;10.024;2023-12-29T10:45:20;94216.88;;;10.24;85.41
27643;BME280;15053;48.618;10.024;2023-12-29T10:47:47;94209.91;;;10.20;85.89
27643;BME280;15053;48.618;10.024;2023-12-29T10:50:14;94221.66;;;10.17;86.48
27643;BME280;15053;48.618;10.024;2023-12-29T10:52:40;94212.59;;;10.15;86.59
27643;BME280;15053;48.618;10.024;2023-12-29T10:55:09;94214.41;;;10.14;86.68
27643;BME280;15053;48.618;10.024;2023-12-29T10:57:38;94216.25;;;10.14;86.95
27643;BME280;15053;48.618;10.024;2023-12-29T11:00:06;94208.69;;;10.12;86.92
27643;BME280;15053;48.618;10.024;2023-12-29T11:02:34;94207.72;;;10.08;87.14
27643;BME280;15053;48.618;10.024;2023-12-29T11:05:03;94211.38;;;10.07;87.79
27643;BME280;15053;48.618;10.024;2023-12-29T11:07:34;94212.16;;;10.07;87.87
27643;BME280;15053;48.618;10.024;2023-12-29T11:10:07;94204.06;;;10.09;88.02
27643;BME280;15053;48.618;10.024;2023-12-29T11:12:36;94200.97;;;10.07;87.86
27643;BME280;15053;48.618;10.024;2023-12-29T11:15:04;94209.81;;;10.06;87.12
27643;BME280;15053;48.618;10.024;2023-12-29T11:17:34;94197.38;;;10.03;86.90
27643;BME280;15053;48.618;10.024;2023-12-29T11:20:02;94204.22;;;9.99;87.31
27643;BME280;15053;48.618;10.024;2023-12-29T11:22:30;94205.19;;;10.03;87.32
27643;BME280;15053;48.618;10.024;2023-12-29T11:24:57;94201.81;;;10.21;86.87
27643;BME280;15053;48.618;10.024;2023-12-29T11:27:29;94197.03;;;10.42;85.64
27643;BME280;15053;48.618;10.024;2023-12-29T11:29:59;94175.84;;;10.48;84.56
27643;BME280;15053;48.618;10.024;2023-12-29T11:37:57;94179.63;;;10.83;82.46
27643;BME280;15053;48.618;10.024;2023-12-29T11:40:35;94177.59;;;10.94;82.17
27643;BME280;15053;48.618;10.024;2023-12-29T11:43:08;94146.31;;;11.07;81.64
27643;BME280;15053;48.618;10.024;2023-12-29T11:45:39;94154.63;;;11.23;80.94
27643;BME280;15053;48.618;10.024;2023-12-29T11:48:05;94153.72;;;11.27;78.92
27643;BME280;15053;48.618;10.024;2023-12-29T11:50:34;94177.28;;;11.36;79.53
27643;BME280;15053;48.618;10.024;2023-12-29T11:53:03;94160.16;;;11.44;77.53
27643;BME280;15053;48.618;10.024;2023-12-29T11:55:34;94160.94;;;11.44;77.48
27643;BME280;15053;48.618;10.024;2023-12-29T11:58:03;94147.00;;;11.49;77.47
27643;BME280;15053;48.618;10.024;2023-12-29T12:00:44;94151.34;;;11.53;77.71
27643;BME280;15053;48.618;10.024;2023-12-29T12:03:25;94143.41;;;11.58;77.12
27643;BME280;15053;48.618;10.024;2023-12-29T12:05:54;94151.25;;;11.58;77.06
27643;BME280;15053;48.618;10.024;2023-12-29T12:13:58;94166.44;;;11.29;78.36
27643;BME280;15053;48.618;10.024;2023-12-29T12:19:14;94154.25;;;11.02;79.96
27643;BME280;15053;48.618;10.024;2023-12-29T12:21:45;94159.75;;;10.87;80.49
27643;BME280;15053;48.618;10.024;2023-12-29T12:24:13;94157.34;;;10.77;80.90
27643;BME280;15053;48.618;10.024;2023-12-29T12:26:40;94154.63;;;10.68;82.10
27643;BME280;15053;48.618;10.024;2023-12-29T12:29:08;94146.25;;;10.58;81.69
27643;BME280;15053;48.618;10.024;2023-12-29T12:31:35;94157.44;;;10.58;82.15
27643;BME280;15053;48.618;10.024;2023-12-29T12:34:02;94145.56;;;10.52;82.25
27643;BME280;15053;48.618;10.024;2023-12-29T12:36:29;94142.47;;;10.50;82.92
27643;BME280;15053;48.618;10.024;2023-12-29T12:38:57;94158.66;;;10.47;82.55
27643;BME280;15053;48.618;10.024;2023-12-29T12:41:25;94143.63;;;10.44;82.80
27643;BME280;15053;48.618;10.024;2023-12-29T12:44:12;94154.03;;;10.44;83.47
27643;BME280;15053;48.618;10.024;2023-12-29T12:49:08;94155.38;;;10.42;83.15
27643;BME280;15053;48.618;10.024;2023-12-29T12:51:35;94147.09;;;10.40;83.61
27643;BME280;15053;48.618;10.024;2023-12-29T12:54:02;94155.69;;;10.40;83.82
27643;BME280;15053;48.618;10.024;2023-12-29T12:56:30;94153.66;;;10.37;83.67
27643;BME280;15053;48.618;10.024;2023-12-29T12:58:57;94155.28;;;10.33;84.08
27643;BME280;15053;48.618;10.024;2023-12-29T13:01:25;94150.16;;;10.28;84.47
27643;BME280;15053;48.618;10.024;2023-12-29T13:03:53;94157.59;;;10.21;84.47
27643;BME280;15053;48.618;10.024;2023-12-29T13:06:20;94151.13;;;10.19;84.91
27643;BME280;15053;48.618;10.024;2023-12-29T13:08:51;94149.25;;;10.19;84.49
27643;BME280;15053;48.618;10.024;2023-12-29T13:11:19;94147.25;;;10.16;84.20
27643;BME280;15053;48.618;10.024;2023-12-29T13:13:48;94139.50;;;10.11;84.92
27643;BME280;15053;48.618;10.024;2023-12-29T13:16:15;94141.13;;;10.07;85.05
27643;BME280;15053;48.618;10.024;2023-12-29T13:18:41;94145.25;;;10.08;85.06
27643;BME280;15053;48.618;10.024;2023-12-29T13:21:08;94136.78;;;10.02;85.15
27643;BME280;15053;48.618;10.024;2023-12-29T13:23:36;94134.56;;;9.96;85.30